createdAt,value
2023-02-05T00:00:04.071Z,5.46
2023-02-05T00:01:04.135Z,5.46
2023-02-05T00:02:04.116Z,5.46
2023-02-05T00:03:03.874Z,5.48
2023-02-05T00:04:03.861Z,5.46
2023-02-05T00:05:03.854Z,5.46
2023-02-05T00:06:03.855Z,5.46
2023-02-05T00:07:03.827Z,5.46
2023-02-05T00:08:03.836Z,5.46
2023-02-05T00:09:03.871Z,5.46
2023-02-05T00:10:03.813Z,5.45
2023-02-05T00:11:03.795Z,5.45
2023-02-05T00:12:03.803Z,5.45
2023-02-05T00:13:03.758Z,5.45
2023-02-05T00:14:03.769Z,5.48
2023-02-05T00:15:03.718Z,5.49
2023-02-05T00:16:03.740Z,5.49
2023-02-05T00:17:03.747Z,5.48
2023-02-05T00:18:03.716Z,5.49
2023-02-05T00:19:03.753Z,5.49
2023-02-05T00:20:03.778Z,5.50
2023-02-05T00:21:03.677Z,5.49
2023-02-05T00:22:03.818Z,5.49
2023-02-05T00:23:03.785Z,5.50
2023-02-05T00:24:03.659Z,5.52
2023-02-05T00:25:03.682Z,5.52
2023-02-05T00:26:03.881Z,5.50
2023-02-05T00:27:03.673Z,5.53
2023-02-05T00:28:03.845Z,5.52
2023-02-05T00:29:03.599Z,5.55
2023-02-05T00:30:03.739Z,5.52
2023-02-05T00:31:03.880Z,5.53
2023-02-05T00:32:03.749Z,5.52
2023-02-05T00:33:04.050Z,5.52
2023-02-05T00:34:03.600Z,5.52
2023-02-05T00:35:03.548Z,5.52
2023-02-05T00:36:03.578Z,5.53
2023-02-05T00:37:03.579Z,5.50
2023-02-05T00:38:03.705Z,5.53
2023-02-05T00:39:03.690Z,5.52
2023-02-05T00:40:03.877Z,5.53
2023-02-05T00:41:03.503Z,5.53
2023-02-05T00:42:04.093Z,5.53
2023-02-05T00:43:04.075Z,5.55
2023-02-05T00:44:03.492Z,5.53
2023-02-05T00:45:03.634Z,5.55
2023-02-05T00:46:04.301Z,5.55
2023-02-05T00:47:03.514Z,5.56
2023-02-05T00:48:03.422Z,5.55
2023-02-05T00:49:03.527Z,5.55
2023-02-05T00:50:03.562Z,5.55
2023-02-05T00:51:03.642Z,5.55
2023-02-05T00:52:03.455Z,5.55
2023-02-05T00:53:03.485Z,5.55
2023-02-05T00:54:03.661Z,5.53
2023-02-05T00:55:03.844Z,5.53
2023-02-05T00:56:03.615Z,5.53
2023-02-05T00:57:03.564Z,5.52
2023-02-05T00:58:03.652Z,5.52
2023-02-05T00:59:03.497Z,5.50
2023-02-05T01:00:04.094Z,5.50
2023-02-05T01:01:03.282Z,5.52
2023-02-05T01:02:03.336Z,5.49
2023-02-05T01:03:03.555Z,5.48
2023-02-05T01:04:03.322Z,5.48
2023-02-05T01:05:03.464Z,5.48
2023-02-05T01:06:03.561Z,5.46
2023-02-05T01:07:03.232Z,5.46
2023-02-05T01:08:03.439Z,5.46
2023-02-05T01:09:03.465Z,5.43
2023-02-05T01:10:03.318Z,5.43
2023-02-05T01:11:03.531Z,5.43
2023-02-05T01:12:03.207Z,5.40
2023-02-05T01:13:03.322Z,5.41
2023-02-05T01:14:03.266Z,5.40
2023-02-05T01:15:03.399Z,5.40
2023-02-05T01:16:03.269Z,5.38
2023-02-05T01:17:03.584Z,5.38
2023-02-05T01:18:03.130Z,5.37
2023-02-05T01:19:03.542Z,5.37
2023-02-05T01:20:03.176Z,5.35
2023-02-05T01:21:03.373Z,5.34
2023-02-05T01:22:03.368Z,5.35
2023-02-05T01:23:03.204Z,5.35
2023-02-05T01:24:03.199Z,5.35
2023-02-05T01:25:03.560Z,5.37
2023-02-05T01:26:03.788Z,5.35
2023-02-05T01:27:03.254Z,5.35
2023-02-05T01:28:03.460Z,5.37
2023-02-05T01:29:03.367Z,5.35
2023-02-05T01:30:03.581Z,5.37
2023-02-05T01:31:03.691Z,5.40
2023-02-05T01:32:03.209Z,5.40
2023-02-05T01:33:02.985Z,5.40
2023-02-05T01:34:03.529Z,5.41
2023-02-05T01:35:02.982Z,5.45
2023-02-05T01:36:02.961Z,5.45
2023-02-05T01:37:02.957Z,5.45
2023-02-05T01:38:03.129Z,5.45
2023-02-05T01:39:03.682Z,5.45
2023-02-05T01:40:03.028Z,5.46
2023-02-05T01:41:03.045Z,5.46
2023-02-05T01:42:03.140Z,5.46
2023-02-05T01:43:03.071Z,5.46
2023-02-05T01:44:02.995Z,5.45
2023-02-05T01:45:03.138Z,5.43
2023-02-05T01:46:03.127Z,5.45
2023-02-05T01:47:02.965Z,5.43
2023-02-05T01:48:02.869Z,5.45
2023-02-05T01:49:02.817Z,5.45
2023-02-05T01:50:02.827Z,5.43
2023-02-05T01:51:02.819Z,5.43
2023-02-05T01:52:02.798Z,5.43
2023-02-05T01:53:02.868Z,5.41
2023-02-05T01:54:03.284Z,5.41
2023-02-05T01:55:02.886Z,5.40
2023-02-05T01:56:02.779Z,5.41
2023-02-05T01:57:02.873Z,5.41
2023-02-05T01:58:02.913Z,5.41
2023-02-05T01:59:02.712Z,5.43
2023-02-05T02:00:02.746Z,5.43
2023-02-05T02:01:02.731Z,5.43
2023-02-05T02:02:02.695Z,5.45
2023-02-05T02:03:02.699Z,5.43
2023-02-05T02:04:02.694Z,5.46
2023-02-05T02:05:02.844Z,5.45
2023-02-05T02:06:02.652Z,5.46
2023-02-05T02:07:02.898Z,5.48
2023-02-05T02:08:02.654Z,5.48
2023-02-05T02:09:02.823Z,5.50
2023-02-05T02:10:02.660Z,5.50
2023-02-05T02:11:02.633Z,5.50
2023-02-05T02:12:02.822Z,5.53
2023-02-05T02:13:03.034Z,5.53
2023-02-05T02:14:02.699Z,5.55
2023-02-05T02:15:02.621Z,5.57
2023-02-05T02:16:02.844Z,5.59
2023-02-05T02:17:02.755Z,5.57
2023-02-05T02:18:03.037Z,5.60
2023-02-05T02:19:02.914Z,5.63
2023-02-05T02:20:02.572Z,5.64
2023-02-05T02:21:02.524Z,5.66
2023-02-05T02:22:02.596Z,5.66
2023-02-05T02:23:02.670Z,5.66
2023-02-05T02:24:02.747Z,5.68
2023-02-05T02:25:02.509Z,5.68
2023-02-05T02:26:02.510Z,5.70
2023-02-05T02:27:02.929Z,5.68
2023-02-05T02:28:02.916Z,5.68
2023-02-05T02:29:02.529Z,5.68
2023-02-05T02:30:02.901Z,5.68
2023-02-05T02:31:02.807Z,5.68
2023-02-05T02:32:02.842Z,5.68
2023-02-05T02:33:02.690Z,5.68
2023-02-05T02:34:02.397Z,5.68
2023-02-05T02:35:02.406Z,5.70
2023-02-05T02:36:02.374Z,5.68
2023-02-05T02:37:02.388Z,5.68
2023-02-05T02:38:02.760Z,5.70
2023-02-05T02:39:02.769Z,5.68
2023-02-05T02:40:02.367Z,5.70
2023-02-05T02:41:02.332Z,5.70
2023-02-05T02:42:02.341Z,5.68
2023-02-05T02:43:02.752Z,5.68
2023-02-05T02:44:02.762Z,5.68
2023-02-05T02:45:02.671Z,5.67
2023-02-05T02:46:02.499Z,5.70
2023-02-05T02:47:02.263Z,5.68
2023-02-05T02:48:02.376Z,5.70
2023-02-05T02:49:02.264Z,5.71
2023-02-05T02:50:02.311Z,5.73
2023-02-05T02:51:02.220Z,5.73
2023-02-05T02:52:02.929Z,5.77
2023-02-05T02:53:02.376Z,5.78
2023-02-05T02:54:02.379Z,5.78
2023-02-05T02:55:02.354Z,5.78
2023-02-05T02:56:02.172Z,5.81
2023-02-05T02:57:02.279Z,5.82
2023-02-05T02:58:02.183Z,5.83
2023-02-05T02:59:02.665Z,5.85
2023-02-05T03:00:02.110Z,5.85
2023-02-05T03:01:02.243Z,5.86
2023-02-05T03:02:02.094Z,5.86
2023-02-05T03:03:02.128Z,5.89
2023-02-05T03:04:02.225Z,5.91
2023-02-05T03:05:02.060Z,5.92
2023-02-05T03:06:02.417Z,5.92
2023-02-05T03:07:02.189Z,5.92
2023-02-05T03:08:02.277Z,5.95
2023-02-05T03:09:02.626Z,5.98
2023-02-05T03:10:02.594Z,5.98
2023-02-05T03:11:02.241Z,6.00
2023-02-05T03:12:02.026Z,6.03
2023-02-05T03:13:02.309Z,6.03
2023-02-05T03:14:02.727Z,6.04
2023-02-05T03:15:02.001Z,6.04
2023-02-05T03:16:02.471Z,6.04
2023-02-05T03:17:02.082Z,6.04
2023-02-05T03:18:01.918Z,6.04
2023-02-05T03:19:01.941Z,6.06
2023-02-05T03:20:02.013Z,6.07
2023-02-05T03:21:02.290Z,6.09
2023-02-05T03:22:01.962Z,6.09
2023-02-05T03:23:02.614Z,6.10
2023-02-05T03:24:02.022Z,6.10
2023-02-05T03:25:01.908Z,6.10
2023-02-05T03:26:01.897Z,6.14
2023-02-05T03:27:01.865Z,6.14
2023-02-05T03:28:01.939Z,6.18
2023-02-05T03:29:02.052Z,6.18
2023-02-05T03:30:01.844Z,6.18
2023-02-05T03:31:01.884Z,6.18
2023-02-05T03:32:01.828Z,6.18
2023-02-05T03:33:01.830Z,6.19
2023-02-05T03:34:02.090Z,6.21
2023-02-05T03:35:01.864Z,6.21
2023-02-05T03:36:01.961Z,6.19
2023-02-05T03:37:02.526Z,6.21
2023-02-05T03:38:01.792Z,6.21
2023-02-05T03:39:01.908Z,6.22
2023-02-05T03:40:02.200Z,6.21
2023-02-05T03:41:01.776Z,6.25
2023-02-05T03:42:01.817Z,6.25
2023-02-05T03:43:01.837Z,6.28
2023-02-05T03:44:01.878Z,6.30
2023-02-05T03:45:01.841Z,6.30
2023-02-05T03:46:01.761Z,6.30
2023-02-05T03:47:01.752Z,6.29
2023-02-05T03:48:01.624Z,6.30
2023-02-05T03:49:01.674Z,6.33
2023-02-05T03:50:01.618Z,6.33
2023-02-05T03:51:02.035Z,6.35
2023-02-05T03:52:01.831Z,6.36
2023-02-05T03:53:01.593Z,6.36
2023-02-05T03:54:01.944Z,6.36
2023-02-05T03:55:01.782Z,6.38
2023-02-05T03:56:02.370Z,6.38
2023-02-05T03:57:02.270Z,6.40
2023-02-05T03:58:01.980Z,6.41
2023-02-05T03:59:01.633Z,6.41
2023-02-05T04:00:01.882Z,6.43
2023-02-05T04:01:01.980Z,6.43
2023-02-05T04:02:01.790Z,6.44
2023-02-05T04:03:01.489Z,6.46
2023-02-05T04:04:02.052Z,6.44
2023-02-05T04:05:01.823Z,6.46
2023-02-05T04:06:01.604Z,6.48
2023-02-05T04:07:01.576Z,6.48
2023-02-05T04:08:01.526Z,6.48
2023-02-05T04:09:01.708Z,6.50
2023-02-05T04:10:01.613Z,6.50
2023-02-05T04:11:01.584Z,6.50
2023-02-05T04:12:01.617Z,6.51
2023-02-05T04:13:01.389Z,6.48
2023-02-05T04:14:01.898Z,6.50
2023-02-05T04:15:01.383Z,6.50
2023-02-05T04:16:01.710Z,6.50
2023-02-05T04:17:01.350Z,6.50
2023-02-05T04:18:01.371Z,6.51
2023-02-05T04:19:01.316Z,6.53
2023-02-05T04:20:01.354Z,6.53
2023-02-05T04:21:01.434Z,6.53
2023-02-05T04:22:01.343Z,6.53
2023-02-05T04:23:01.387Z,6.53
2023-02-05T04:24:01.372Z,6.53
2023-02-05T04:25:01.292Z,6.53
2023-02-05T04:26:01.262Z,6.51
2023-02-05T04:27:01.244Z,6.53
2023-02-05T04:28:01.301Z,6.54
2023-02-05T04:29:01.346Z,6.51
2023-02-05T04:30:01.232Z,6.53
2023-02-05T04:31:01.250Z,6.53
2023-02-05T04:32:01.404Z,6.53
2023-02-05T04:33:01.182Z,6.51
2023-02-05T04:34:01.244Z,6.53
2023-02-05T04:35:01.739Z,6.51
2023-02-05T04:36:01.595Z,6.51
2023-02-05T04:37:01.335Z,6.50
2023-02-05T04:38:01.151Z,6.53
2023-02-05T04:39:01.409Z,6.53
2023-02-05T04:40:01.555Z,6.51
2023-02-05T04:41:01.404Z,6.53
2023-02-05T04:42:01.335Z,6.54
2023-02-05T04:43:01.149Z,6.54
2023-02-05T04:44:01.331Z,6.54
2023-02-05T04:45:01.425Z,6.54
2023-02-05T04:46:01.322Z,6.58
2023-02-05T04:47:01.075Z,6.61
2023-02-05T04:48:01.350Z,6.59
2023-02-05T04:49:01.020Z,6.59
2023-02-05T04:50:01.630Z,6.61
2023-02-05T04:51:01.010Z,6.62
2023-02-05T04:52:01.184Z,6.62
2023-02-05T04:53:01.319Z,6.62
2023-02-05T04:54:01.047Z,6.61
2023-02-05T04:55:01.157Z,6.63
2023-02-05T04:56:01.001Z,6.63
2023-02-05T04:57:01.478Z,6.63
2023-02-05T04:58:01.198Z,6.62
2023-02-05T04:59:01.152Z,6.59
2023-02-05T05:00:01.053Z,6.58
2023-02-05T05:01:01.390Z,6.54
2023-02-05T05:02:01.343Z,6.56
2023-02-05T05:03:00.910Z,6.53
2023-02-05T05:04:00.941Z,6.50
2023-02-05T05:05:01.060Z,6.48
2023-02-05T05:06:01.111Z,6.48
2023-02-05T05:07:01.239Z,6.47
2023-02-05T05:08:00.930Z,6.47
2023-02-05T05:09:01.228Z,6.46
2023-02-05T05:10:00.976Z,6.47
2023-02-05T05:11:01.284Z,6.43
2023-02-05T05:12:00.999Z,6.43
2023-02-05T05:13:01.234Z,6.44
2023-02-05T05:14:00.983Z,6.43
2023-02-05T05:15:01.161Z,6.44
2023-02-05T05:16:00.908Z,6.44
2023-02-05T05:17:00.979Z,6.44
2023-02-05T05:18:00.738Z,6.44
2023-02-05T05:19:00.934Z,6.44
2023-02-05T05:20:00.764Z,6.44
2023-02-05T05:21:01.156Z,6.44
2023-02-05T05:22:00.739Z,6.43
2023-02-05T05:23:00.741Z,6.43
2023-02-05T05:24:00.870Z,6.44
2023-02-05T05:25:00.754Z,6.44
2023-02-05T05:26:00.781Z,6.51
2023-02-05T05:27:00.692Z,6.51
2023-02-05T05:28:00.718Z,6.53
2023-02-05T05:29:00.665Z,6.56
2023-02-05T05:30:00.751Z,6.54
2023-02-05T05:31:00.651Z,6.56
2023-02-05T05:32:00.774Z,6.59
2023-02-05T05:33:00.611Z,6.59
2023-02-05T05:34:00.864Z,6.59
2023-02-05T05:35:00.699Z,6.58
2023-02-05T05:36:00.612Z,6.58
2023-02-05T05:37:00.676Z,6.59
2023-02-05T05:38:00.732Z,6.56
2023-02-05T05:39:00.693Z,6.54
2023-02-05T05:40:00.860Z,6.53
2023-02-05T05:41:00.648Z,6.54
2023-02-05T05:42:00.723Z,6.51
2023-02-05T05:43:00.507Z,6.50
2023-02-05T05:44:00.533Z,6.50
2023-02-05T05:45:00.606Z,6.47
2023-02-05T05:46:00.722Z,6.46
2023-02-05T05:47:00.692Z,6.44
2023-02-05T05:48:00.751Z,6.44
2023-02-05T05:49:00.744Z,6.44
2023-02-05T05:50:00.454Z,6.43
2023-02-05T05:51:00.514Z,6.41
2023-02-05T05:52:00.719Z,6.41
2023-02-05T05:53:00.549Z,6.41
2023-02-05T05:54:00.711Z,6.38
2023-02-05T05:55:00.653Z,6.38
2023-02-05T05:56:00.884Z,6.38
2023-02-05T05:57:00.690Z,6.36
2023-02-05T05:58:00.825Z,6.35
2023-02-05T05:59:00.710Z,6.36
2023-02-05T06:00:00.524Z,6.35
2023-02-05T06:01:00.387Z,6.35
2023-02-05T06:02:00.415Z,6.36
2023-02-05T06:03:00.774Z,6.36
2023-02-05T06:04:02.943Z,6.35
2023-02-05T06:05:00.864Z,6.35
2023-02-05T06:06:00.264Z,6.38
2023-02-05T06:07:00.286Z,6.36
2023-02-05T06:08:00.366Z,6.36
2023-02-05T06:09:00.335Z,6.36
2023-02-05T06:10:00.232Z,6.38
2023-02-05T06:11:00.418Z,6.38
2023-02-05T06:12:00.388Z,6.38
2023-02-05T06:13:00.376Z,6.40
2023-02-05T06:14:00.334Z,6.41
2023-02-05T06:15:00.147Z,6.43
2023-02-05T06:16:00.424Z,6.44
2023-02-05T06:17:00.278Z,6.44
2023-02-05T06:18:00.134Z,6.44
2023-02-05T06:19:00.155Z,6.46
2023-02-05T06:20:00.463Z,6.47
2023-02-05T06:21:00.518Z,6.48
2023-02-05T06:22:00.357Z,6.48
2023-02-05T06:23:00.105Z,6.50
2023-02-05T06:24:00.116Z,6.51
2023-02-05T06:25:00.264Z,6.51
2023-02-05T06:26:00.108Z,6.51
2023-02-05T06:27:00.094Z,6.54
2023-02-05T06:28:00.664Z,6.53
2023-02-05T06:29:00.029Z,6.53
2023-02-05T06:30:00.137Z,6.56
2023-02-05T06:31:00.220Z,6.56
2023-02-05T06:32:00.309Z,6.58
2023-02-05T06:33:00.007Z,6.61
2023-02-05T06:34:00.108Z,6.63
2023-02-05T06:35:00.058Z,6.65
2023-02-05T06:36:00.373Z,6.65
2023-02-05T06:37:00.021Z,6.68
2023-02-05T06:38:00.122Z,6.68
2023-02-05T06:38:59.976Z,6.68
2023-02-05T06:40:00.188Z,6.69
2023-02-05T06:41:00.296Z,6.69
2023-02-05T06:41:59.943Z,6.69
2023-02-05T06:42:59.906Z,6.71
2023-02-05T06:43:59.997Z,6.69
2023-02-05T06:44:59.875Z,6.71
2023-02-05T06:45:59.900Z,6.69
2023-02-05T06:46:59.937Z,6.72
2023-02-05T06:48:00.033Z,6.71
2023-02-05T06:49:00.050Z,6.69
2023-02-05T06:50:00.533Z,6.69
2023-02-05T06:50:59.935Z,6.69
2023-02-05T06:52:00.098Z,6.69
2023-02-05T06:53:00.137Z,6.69
2023-02-05T06:54:00.008Z,6.71
2023-02-05T06:54:59.822Z,6.69
2023-02-05T06:55:59.991Z,6.71
2023-02-05T06:56:59.887Z,6.71
2023-02-05T06:57:59.867Z,6.72
2023-02-05T06:58:59.746Z,6.72
2023-02-05T06:59:59.728Z,6.72
2023-02-05T07:00:59.696Z,6.72
2023-02-05T07:01:59.735Z,6.73
2023-02-05T07:02:59.831Z,6.73
2023-02-05T07:03:59.769Z,6.73
2023-02-05T07:05:00.112Z,6.76
2023-02-05T07:05:59.805Z,6.76
2023-02-05T07:06:59.923Z,6.73
2023-02-05T07:08:00.006Z,6.73
2023-02-05T07:08:59.822Z,6.76
2023-02-05T07:09:59.720Z,6.76
2023-02-05T07:10:59.623Z,6.73
2023-02-05T07:12:00.235Z,6.73
2023-02-05T07:12:59.586Z,6.76
2023-02-05T07:13:59.807Z,6.73
2023-02-05T07:14:59.633Z,6.72
2023-02-05T07:15:59.784Z,6.73
2023-02-05T07:16:59.567Z,6.76
2023-02-05T07:17:59.661Z,6.76
2023-02-05T07:18:59.700Z,6.73
2023-02-05T07:19:59.593Z,6.73
2023-02-05T07:20:59.512Z,6.76
2023-02-05T07:21:59.622Z,6.72
2023-02-05T07:22:59.803Z,6.73
2023-02-05T07:23:59.733Z,6.72
2023-02-05T07:24:59.834Z,6.73
2023-02-05T07:25:59.854Z,6.72
2023-02-05T07:26:59.658Z,6.72
2023-02-05T07:27:59.486Z,6.72
2023-02-05T07:28:59.577Z,6.72
2023-02-05T07:30:00.032Z,6.72
2023-02-05T07:31:00.346Z,6.71
2023-02-05T07:31:59.491Z,6.69
2023-02-05T07:32:59.437Z,6.71
2023-02-05T07:33:59.561Z,6.69
2023-02-05T07:34:59.399Z,6.69
2023-02-05T07:35:59.464Z,6.68
2023-02-05T07:36:59.373Z,6.68
2023-02-05T07:37:59.502Z,6.68
2023-02-05T07:38:59.336Z,6.66
2023-02-05T07:39:59.631Z,6.65
2023-02-05T07:40:59.951Z,6.65
2023-02-05T07:41:59.507Z,6.63
2023-02-05T07:42:59.417Z,6.62
2023-02-05T07:43:59.430Z,6.62
2023-02-05T07:44:59.566Z,6.59
2023-02-05T07:45:59.465Z,6.61
2023-02-05T07:46:59.350Z,6.58
2023-02-05T07:47:59.375Z,6.59
2023-02-05T07:48:59.277Z,6.58
2023-02-05T07:49:59.492Z,6.58
2023-02-05T07:50:59.533Z,6.58
2023-02-05T07:51:59.420Z,6.56
2023-02-05T07:52:59.196Z,6.56
2023-02-05T07:53:59.261Z,6.56
2023-02-05T07:54:59.238Z,6.54
2023-02-05T07:55:59.163Z,6.56
2023-02-05T07:56:59.398Z,6.54
2023-02-05T07:57:59.243Z,6.54
2023-02-05T07:58:59.364Z,6.54
2023-02-05T07:59:59.255Z,6.53
2023-02-05T08:00:59.141Z,6.54
2023-02-05T08:01:59.150Z,6.54
2023-02-05T08:02:59.147Z,6.54
2023-02-05T08:03:59.661Z,6.53
2023-02-05T08:04:59.210Z,6.54
2023-02-05T08:05:59.291Z,6.54
2023-02-05T08:06:59.302Z,6.54
2023-02-05T08:07:59.075Z,6.56
2023-02-05T08:08:59.076Z,6.58
2023-02-05T08:09:59.109Z,6.56
2023-02-05T08:10:59.195Z,6.56
2023-02-05T08:11:58.996Z,6.56
2023-02-05T08:12:59.145Z,6.58
2023-02-05T08:13:59.430Z,6.58
2023-02-05T08:14:59.024Z,6.58
2023-02-05T08:15:59.292Z,6.56
2023-02-05T08:16:58.928Z,6.58
2023-02-05T08:17:58.909Z,6.59
2023-02-05T08:18:58.916Z,6.61
2023-02-05T08:19:59.024Z,6.59
2023-02-05T08:20:59.116Z,6.61
2023-02-05T08:21:59.004Z,6.54
2023-02-05T08:22:58.874Z,6.51
2023-02-05T08:23:58.886Z,6.50
2023-02-05T08:24:59.009Z,6.48
2023-02-05T08:25:59.099Z,6.44
2023-02-05T08:26:59.341Z,6.44
2023-02-05T08:27:59.026Z,6.40
2023-02-05T08:28:59.098Z,6.36
2023-02-05T08:29:58.983Z,6.32
2023-02-05T08:30:58.868Z,6.25
2023-02-05T08:31:58.865Z,6.25
2023-02-05T08:32:58.810Z,6.25
2023-02-05T08:33:58.920Z,6.18
2023-02-05T08:34:58.912Z,6.16
2023-02-05T08:35:58.764Z,6.16
2023-02-05T08:36:58.868Z,6.16
2023-02-05T08:37:58.907Z,6.14
2023-02-05T08:38:58.713Z,6.13
2023-02-05T08:39:58.787Z,6.14
2023-02-05T08:40:58.864Z,6.19
2023-02-05T08:41:58.675Z,6.21
2023-02-05T08:42:58.701Z,6.25
2023-02-05T08:43:58.804Z,6.26
2023-02-05T08:44:58.713Z,6.29
2023-02-05T08:45:58.781Z,6.32
2023-02-05T08:46:58.645Z,6.30
2023-02-05T08:47:58.872Z,6.30
2023-02-05T08:48:58.662Z,6.28
2023-02-05T08:49:58.659Z,6.26
2023-02-05T08:50:58.771Z,6.25
2023-02-05T08:51:58.609Z,6.22
2023-02-05T08:52:58.717Z,6.22
2023-02-05T08:53:58.747Z,6.16
2023-02-05T08:54:58.663Z,6.11
2023-02-05T08:55:58.563Z,6.04
2023-02-05T08:56:58.823Z,6.04
2023-02-05T08:57:58.818Z,6.03
2023-02-05T08:58:58.552Z,6.04
2023-02-05T08:59:58.723Z,6.03
2023-02-05T09:00:58.549Z,6.07
2023-02-05T09:01:58.555Z,6.06
2023-02-05T09:02:58.515Z,6.10
2023-02-05T09:03:58.705Z,6.11
2023-02-05T09:05:08.049Z,6.18
2023-02-05T09:05:58.538Z,6.21
2023-02-05T09:06:58.626Z,6.18
2023-02-05T09:07:58.614Z,6.14
2023-02-05T09:08:58.469Z,6.16
2023-02-05T09:09:58.705Z,6.13
2023-02-05T09:10:58.664Z,6.13
2023-02-05T09:11:58.593Z,6.14
2023-02-05T09:12:58.517Z,6.18
2023-02-05T09:13:58.716Z,6.22
2023-02-05T09:14:58.402Z,6.26
2023-02-05T09:15:58.420Z,6.28
2023-02-05T09:16:58.493Z,6.26
2023-02-05T09:17:58.358Z,6.28
2023-02-05T09:18:58.517Z,6.25
2023-02-05T09:19:58.322Z,6.25
2023-02-05T09:20:58.501Z,6.22
2023-02-05T09:21:58.494Z,6.25
2023-02-05T09:22:58.266Z,6.21
2023-02-05T09:23:58.391Z,6.25
2023-02-05T09:24:58.941Z,6.26
2023-02-05T09:25:58.522Z,6.28
2023-02-05T09:26:58.787Z,6.29
2023-02-05T09:27:58.316Z,6.33
2023-02-05T09:28:58.484Z,6.33
2023-02-05T09:29:58.208Z,6.32
2023-02-05T09:30:58.748Z,6.30
2023-02-05T09:31:58.430Z,6.30
2023-02-05T09:32:58.369Z,6.30
2023-02-05T09:33:58.332Z,6.30
2023-02-05T09:34:58.262Z,6.29
2023-02-05T09:35:58.365Z,6.28
2023-02-05T09:36:58.438Z,6.25
2023-02-05T09:37:58.257Z,6.21
2023-02-05T09:39:13.394Z,6.16
2023-02-05T09:40:20.545Z,6.16
2023-02-05T09:40:58.333Z,6.19
2023-02-05T09:41:58.125Z,6.22
2023-02-05T09:42:58.385Z,6.29
2023-02-05T09:43:58.282Z,6.32
2023-02-05T09:44:58.086Z,6.33
2023-02-05T09:45:58.140Z,6.30
2023-02-05T09:46:58.244Z,6.26
2023-02-05T09:47:58.184Z,6.26
2023-02-05T09:48:58.297Z,6.28
2023-02-05T09:49:58.119Z,6.29
2023-02-05T09:50:58.281Z,6.32
2023-02-05T09:51:58.002Z,6.36
2023-02-05T09:52:57.996Z,6.38
2023-02-05T09:53:58.120Z,6.43
2023-02-05T09:54:57.987Z,6.41
2023-02-05T09:55:58.038Z,6.43
2023-02-05T09:56:58.102Z,6.41
2023-02-05T09:57:58.089Z,6.40
2023-02-05T09:58:57.965Z,6.43
2023-02-05T09:59:58.154Z,6.43
2023-02-05T10:00:58.026Z,6.43
2023-02-05T10:01:57.916Z,6.43
2023-02-05T10:02:57.937Z,6.44
2023-02-05T10:03:58.098Z,6.43
2023-02-05T10:04:58.054Z,6.43
2023-02-05T10:05:57.869Z,6.41
2023-02-05T10:06:57.902Z,6.40
2023-02-05T10:07:57.914Z,6.40
2023-02-05T10:08:57.846Z,6.35
2023-02-05T10:09:58.324Z,6.33
2023-02-05T10:10:58.045Z,6.33
2023-02-05T10:11:57.883Z,6.36
2023-02-05T10:12:57.979Z,6.40
2023-02-05T10:13:58.077Z,6.44
2023-02-05T10:14:58.082Z,6.46
2023-02-05T10:15:57.978Z,6.48
2023-02-05T10:16:57.945Z,6.50
2023-02-05T10:17:57.746Z,6.50
2023-02-05T10:18:57.833Z,6.47
2023-02-05T10:19:57.760Z,6.46
2023-02-05T10:20:57.992Z,6.47
2023-02-05T10:21:58.055Z,6.48
2023-02-05T10:22:57.890Z,6.48
2023-02-05T10:23:57.728Z,6.50
2023-02-05T10:24:57.671Z,6.51
2023-02-05T10:25:57.851Z,6.53
2023-02-05T10:26:57.651Z,6.50
2023-02-05T10:27:57.818Z,6.51
2023-02-05T10:28:57.786Z,6.51
2023-02-05T10:29:57.794Z,6.50
2023-02-05T10:30:57.861Z,6.51
2023-02-05T10:31:57.596Z,6.51
2023-02-05T10:32:57.594Z,6.51
2023-02-05T10:33:57.985Z,6.53
2023-02-05T10:34:57.664Z,6.56
2023-02-05T10:35:58.456Z,6.56
2023-02-05T10:36:57.562Z,6.53
2023-02-05T10:37:58.004Z,6.56
2023-02-05T10:38:57.518Z,6.56
2023-02-05T10:39:57.607Z,6.56
2023-02-05T10:40:59.980Z,6.58
2023-02-05T10:41:57.704Z,6.58
2023-02-05T10:42:57.520Z,6.59
2023-02-05T10:43:57.480Z,6.61
2023-02-05T10:44:57.489Z,6.61
2023-02-05T10:45:57.534Z,6.59
2023-02-05T10:46:57.483Z,6.59
2023-02-05T10:47:57.597Z,6.58
2023-02-05T10:48:57.588Z,6.58
2023-02-05T10:49:57.921Z,6.59
2023-02-05T10:50:57.620Z,6.59
2023-02-05T10:51:57.443Z,6.59
2023-02-05T10:52:57.483Z,6.56
2023-02-05T10:53:57.567Z,6.53
2023-02-05T10:54:57.514Z,6.51
2023-02-05T10:55:57.373Z,6.50
2023-02-05T10:56:57.667Z,6.48
2023-02-05T10:57:57.729Z,6.46
2023-02-05T10:58:57.362Z,6.44
2023-02-05T10:59:57.516Z,6.46
2023-02-05T11:00:57.349Z,6.47
2023-02-05T11:01:57.392Z,6.48
2023-02-05T11:02:57.496Z,6.48
2023-02-05T11:03:57.294Z,6.48
2023-02-05T11:04:57.273Z,6.50
2023-02-05T11:05:57.261Z,6.51
2023-02-05T11:06:57.298Z,6.51
2023-02-05T11:07:57.229Z,6.56
2023-02-05T11:08:57.238Z,6.56
2023-02-05T11:09:57.266Z,6.48
2023-02-05T11:10:57.253Z,6.48
2023-02-05T11:11:57.244Z,6.46
2023-02-05T11:12:57.340Z,6.41
2023-02-05T11:13:57.611Z,6.43
2023-02-05T11:14:57.168Z,6.43
2023-02-05T11:15:57.335Z,6.44
2023-02-05T11:16:57.174Z,6.46
2023-02-05T11:17:57.347Z,6.44
2023-02-05T11:18:57.151Z,6.44
2023-02-05T11:19:57.680Z,6.44
2023-02-05T11:20:57.124Z,6.46
2023-02-05T11:21:57.179Z,6.46
2023-02-05T11:22:57.547Z,6.38
2023-02-05T11:23:57.096Z,6.36
2023-02-05T11:24:57.092Z,6.35
2023-02-05T11:25:57.332Z,6.36
2023-02-05T11:26:57.307Z,6.40
2023-02-05T11:27:57.282Z,6.41
2023-02-05T11:28:57.046Z,6.41
2023-02-05T11:29:57.111Z,6.40
2023-02-05T11:30:57.399Z,6.38
2023-02-05T11:31:57.512Z,6.35
2023-02-05T11:32:57.087Z,6.40
2023-02-05T11:33:57.317Z,6.40
2023-02-05T11:34:56.980Z,6.38
2023-02-05T11:35:57.226Z,6.38
2023-02-05T11:36:56.987Z,6.40
2023-02-05T11:37:57.152Z,6.41
2023-02-05T11:38:57.176Z,6.41
2023-02-05T11:39:57.155Z,6.35
2023-02-05T11:40:57.075Z,6.35
2023-02-05T11:41:56.926Z,6.35
2023-02-05T11:42:56.932Z,6.35
2023-02-05T11:43:56.917Z,6.38
2023-02-05T11:44:57.272Z,6.33
2023-02-05T11:45:57.061Z,6.36
2023-02-05T11:46:57.096Z,6.36
2023-02-05T11:47:57.005Z,6.33
2023-02-05T11:48:57.410Z,6.33
2023-02-05T11:49:57.260Z,6.35
2023-02-05T11:50:57.037Z,6.35
2023-02-05T11:51:57.079Z,6.35
2023-02-05T11:52:57.319Z,6.36
2023-02-05T11:53:56.998Z,6.33
2023-02-05T11:54:56.788Z,6.35
2023-02-05T11:55:57.014Z,6.36
2023-02-05T11:56:56.937Z,6.36
2023-02-05T11:57:57.233Z,6.36
2023-02-05T11:58:56.775Z,6.38
2023-02-05T11:59:56.937Z,6.35
2023-02-05T12:00:56.729Z,6.35
2023-02-05T12:01:56.844Z,6.35
2023-02-05T12:02:56.745Z,6.35
2023-02-05T12:03:56.736Z,6.33
2023-02-05T12:04:56.702Z,6.32
2023-02-05T12:05:56.683Z,6.32
2023-02-05T12:06:56.683Z,6.29
2023-02-05T12:07:56.716Z,6.30
2023-02-05T12:08:56.848Z,6.32
2023-02-05T12:09:56.875Z,6.32
2023-02-05T12:10:56.926Z,6.30
2023-02-05T12:11:57.112Z,6.32
2023-02-05T12:12:56.611Z,6.30
2023-02-05T12:13:56.602Z,6.32
2023-02-05T12:14:56.609Z,6.30
2023-02-05T12:15:56.632Z,6.33
2023-02-05T12:16:56.577Z,6.33
2023-02-05T12:17:56.551Z,6.36
2023-02-05T12:18:56.793Z,6.36
2023-02-05T12:19:56.543Z,6.38
2023-02-05T12:20:56.485Z,6.40
2023-02-05T12:21:56.555Z,6.40
2023-02-05T12:22:56.630Z,6.43
2023-02-05T12:23:56.549Z,6.46
2023-02-05T12:24:56.680Z,6.46
2023-02-05T12:25:56.893Z,6.46
2023-02-05T12:26:56.496Z,6.47
2023-02-05T12:27:56.497Z,6.43
2023-02-05T12:28:56.455Z,6.44
2023-02-05T12:29:56.652Z,6.44
2023-02-05T12:30:56.592Z,6.47
2023-02-05T12:31:56.528Z,6.44
2023-02-05T12:32:56.447Z,6.43
2023-02-05T12:33:56.427Z,6.43
2023-02-05T12:34:56.527Z,6.44
2023-02-05T12:35:56.398Z,6.43
2023-02-05T12:36:56.352Z,6.44
2023-02-05T12:37:56.353Z,6.46
2023-02-05T12:38:56.493Z,6.46
2023-02-05T12:39:56.379Z,6.44
2023-02-05T12:40:56.363Z,6.41
2023-02-05T12:41:56.389Z,6.41
2023-02-05T12:42:56.318Z,6.40
2023-02-05T12:43:56.324Z,6.41
2023-02-05T12:44:56.459Z,6.43
2023-02-05T12:45:56.582Z,6.43
2023-02-05T12:46:56.276Z,6.40
2023-02-05T12:47:56.280Z,6.41
2023-02-05T12:48:56.258Z,6.40
2023-02-05T12:49:56.271Z,6.38
2023-02-05T12:50:56.365Z,6.36
2023-02-05T12:51:56.253Z,6.35
2023-02-05T12:52:56.203Z,6.32
2023-02-05T12:53:56.282Z,6.33
2023-02-05T12:54:56.210Z,6.33
2023-02-05T12:55:56.179Z,6.32
2023-02-05T12:56:56.177Z,6.29
2023-02-05T12:57:56.198Z,6.30
2023-02-05T12:58:56.289Z,6.28
2023-02-05T12:59:56.231Z,6.26
2023-02-05T13:00:56.334Z,6.28
2023-02-05T13:01:56.356Z,6.26
2023-02-05T13:02:56.352Z,6.28
2023-02-05T13:03:56.359Z,6.29
2023-02-05T13:04:56.158Z,6.28
2023-02-05T13:05:56.132Z,6.29
2023-02-05T13:06:56.387Z,6.29
2023-02-05T13:07:56.040Z,6.26
2023-02-05T13:08:56.041Z,6.26
2023-02-05T13:09:56.050Z,6.28
2023-02-05T13:10:56.180Z,6.29
2023-02-05T13:11:56.061Z,6.30
2023-02-05T13:12:56.027Z,6.30
2023-02-05T13:13:55.996Z,6.29
2023-02-05T13:14:55.988Z,6.28
2023-02-05T13:15:56.480Z,6.28
2023-02-05T13:16:56.022Z,6.28
2023-02-05T13:17:56.216Z,6.26